Time;durP1;ratioP1;P1;durP2;ratioP2;P2;SDS_P1;SDS_P2;PMS_P1;PMS_P2;Temp;Humidity;BMP_temperature;BMP_pressure;BME280_temperature;BME280_humidity;BME280_pressure;Samples;Min_cycle;Max_cycle;Signal;HPM_P1;HPM_P2
2022/02/15 00:00:22;;;;;;;102.15;69.18;;;;;;;;;;5050648;28;20526;-78
2022/02/15 00:02:48;;;;;;;120.20;76.82;;;;;;;;;;5050302;28;20021;-78
2022/02/15 00:05:14;;;;;;;134.77;78.63;;;;;;;;;;5050519;28;20047;-79
2022/02/15 00:07:40;;;;;;;115.95;71.20;;;;;;;;;;5047956;28;20044;-80
2022/02/15 00:10:08;;;;;;;110.13;68.88;;;;;;;;;;5050503;28;20207;-79
2022/02/15 00:12:34;;;;;;;101.70;67.30;;;;;;;;;;5049270;28;20052;-82
2022/02/15 00:15:00;;;;;;;103.63;64.95;;;;;;;;;;5051121;28;20025;-79
2022/02/15 00:17:26;;;;;;;112.68;70.93;;;;;;;;;;5052216;28;20048;-79
2022/02/15 00:19:52;;;;;;;93.70;60.30;;;;;;;;;;5050894;28;20531;-81
2022/02/15 00:22:19;;;;;;;100.82;63.90;;;;;;;;;;5052166;28;20078;-81
2022/02/15 00:24:45;;;;;;;89.22;58.08;;;;;;;;;;5050686;28;20029;-81
2022/02/15 00:27:11;;;;;;;78.75;51.63;;;;;;;;;;5050985;28;20426;-82
2022/02/15 00:29:37;;;;;;;72.47;48.95;;;;;;;;;;5051249;28;20459;-80
2022/02/15 00:32:03;;;;;;;78.25;46.90;;;;;;;;;;5051393;28;20029;-79
2022/02/15 00:34:30;;;;;;;60.80;39.78;;;;;;;;;;5046851;28;20021;-79
2022/02/15 00:36:56;;;;;;;62.22;39.03;;;;;;;;;;5051015;28;20021;-79
2022/02/15 00:39:22;;;;;;;66.78;48.15;;;;;;;;;;5050857;28;20023;-79
2022/02/15 00:41:48;;;;;;;79.05;52.35;;;;;;;;;;5051119;28;20053;-78
2022/02/15 00:44:14;;;;;;;82.70;52.63;;;;;;;;;;5051534;28;20017;-79
2022/02/15 00:46:40;;;;;;;78.07;48.03;;;;;;;;;;5051718;28;20028;-79
2022/02/15 00:49:06;;;;;;;83.55;53.53;;;;;;;;;;5051562;28;20526;-80
2022/02/15 00:51:32;;;;;;;76.07;47.75;;;;;;;;;;5051218;28;20420;-79
2022/02/15 00:53:58;;;;;;;77.40;48.70;;;;;;;;;;5037667;28;20014;-80
2022/02/15 00:56:25;;;;;;;66.18;43.33;;;;;;;;;;5050978;28;20468;-82
2022/02/15 00:58:51;;;;;;;64.15;40.55;;;;;;;;;;5049392;28;20041;-80
2022/02/15 01:01:17;;;;;;;63.80;44.38;;;;;;;;;;5049538;28;20037;-79
2022/02/15 01:03:43;;;;;;;67.70;44.55;;;;;;;;;;5048966;28;20098;-79
2022/02/15 01:06:09;;;;;;;89.25;55.35;;;;;;;;;;5050132;28;20013;-78
2022/02/15 01:08:35;;;;;;;83.38;53.20;;;;;;;;;;5052514;28;20126;-81
2022/02/15 01:11:01;;;;;;;80.40;52.72;;;;;;;;;;5054541;28;20036;-78
2022/02/15 01:13:27;;;;;;;73.75;46.63;;;;;;;;;;5054063;28;20013;-77
2022/02/15 01:15:54;;;;;;;64.63;42.75;;;;;;;;;;5053874;28;20067;-79
2022/02/15 01:18:20;;;;;;;59.65;39.65;;;;;;;;;;5054398;28;20070;-81
2022/02/15 01:20:46;;;;;;;60.42;38.03;;;;;;;;;;5053084;28;20360;-80
2022/02/15 01:23:13;;;;;;;58.70;39.28;;;;;;;;;;5054031;28;20017;-79
2022/02/15 01:25:39;;;;;;;56.40;38.30;;;;;;;;;;5053874;28;20021;-79
2022/02/15 01:28:05;;;;;;;59.70;41.40;;;;;;;;;;5053477;28;20087;-78
2022/02/15 01:30:31;;;;;;;60.13;37.25;;;;;;;;;;5054048;28;20061;-84
2022/02/15 01:32:57;;;;;;;56.90;39.75;;;;;;;;;;5053533;28;20057;-82
2022/02/15 01:35:24;;;;;;;62.85;42.15;;;;;;;;;;5053661;28;20013;-82
2022/02/15 01:37:50;;;;;;;65.10;39.70;;;;;;;;;;5066978;28;20495;-81
2022/02/15 01:40:16;;;;;;;63.65;41.50;;;;;;;;;;5052262;28;20021;-79
2022/02/15 01:42:42;;;;;;;57.45;39.92;;;;;;;;;;5054127;28;20021;-79
2022/02/15 01:45:12;;;;;;;53.90;36.85;;;;;;;;;;5052785;28;20070;-80
2022/02/15 01:47:38;;;;;;;66.55;44.03;;;;;;;;;;5067423;28;20096;-79
2022/02/15 01:50:04;;;;;;;86.50;57.03;;;;;;;;;;5054217;28;20033;-83
2022/02/15 01:52:31;;;;;;;105.25;72.65;;;;;;;;;;5054416;28;20075;-82
2022/02/15 01:54:58;;;;;;;119.43;78.75;;;;;;;;;;5054273;28;20511;-81
2022/02/15 01:57:25;;;;;;;115.07;71.38;;;;;;;;;;5054101;28;20025;-81
2022/02/15 01:59:54;;;;;;;121.68;79.72;;;;;;;;;;5053745;28;20049;-81
2022/02/15 02:02:21;;;;;;;108.38;73.10;;;;;;;;;;5054173;28;20017;-82
2022/02/15 02:07:31;;;;;;;99.10;65.05;;;;;;;;;;5053930;28;20036;-81
2022/02/15 02:09:57;;;;;;;93.43;61.78;;;;;;;;;;5053493;28;20028;-83
2022/02/15 02:12:24;;;;;;;94.20;65.68;;;;;;;;;;5053984;28;20057;-82
2022/02/15 02:15:16;;;;;;;97.60;64.10;;;;;;;;;;5053996;28;20102;-84
2022/02/15 02:17:42;;;;;;;98.18;64.15;;;;;;;;;;5048124;28;20095;-79
2022/02/15 02:20:08;;;;;;;103.70;66.00;;;;;;;;;;5052621;28;20016;-81
2022/02/15 02:22:34;;;;;;;97.45;64.35;;;;;;;;;;5052300;28;20765;-81
2022/02/15 02:25:01;;;;;;;81.82;52.67;;;;;;;;;;5053565;28;20013;-81
2022/02/15 02:27:28;;;;;;;75.20;48.03;;;;;;;;;;5053605;28;20029;-80
2022/02/15 02:29:54;;;;;;;89.72;55.33;;;;;;;;;;5053408;28;20029;-81
2022/02/15 02:32:24;;;;;;;74.57;49.08;;;;;;;;;;5051243;28;20060;-84
2022/02/15 02:34:50;;;;;;;80.90;49.45;;;;;;;;;;5053154;28;20148;-81
2022/02/15 02:37:16;;;;;;;70.97;49.47;;;;;;;;;;5052629;28;20016;-81
2022/02/15 02:39:44;;;;;;;72.80;48.85;;;;;;;;;;5052239;28;20028;-79
2022/02/15 02:42:10;;;;;;;72.40;51.90;;;;;;;;;;5050838;28;20486;-82
2022/02/15 02:44:36;;;;;;;74.93;51.63;;;;;;;;;;5049559;28;20027;-79
2022/02/15 02:47:02;;;;;;;82.68;53.25;;;;;;;;;;5046722;28;20026;-79
2022/02/15 02:49:29;;;;;;;76.40;52.05;;;;;;;;;;5047644;28;20045;-78
2022/02/15 02:51:55;;;;;;;86.93;55.08;;;;;;;;;;5051281;28;20029;-77
2022/02/15 02:54:23;;;;;;;80.53;52.22;;;;;;;;;;5052767;28;20090;-79
2022/02/15 02:56:49;;;;;;;79.43;51.35;;;;;;;;;;5052933;28;20078;-78
2022/02/15 02:59:15;;;;;;;78.03;54.03;;;;;;;;;;5052180;28;20096;-81
2022/02/15 03:01:41;;;;;;;90.53;59.25;;;;;;;;;;5052429;28;20033;-78
2022/02/15 03:04:07;;;;;;;78.05;52.67;;;;;;;;;;5051953;28;20049;-80
2022/02/15 03:06:33;;;;;;;92.63;58.25;;;;;;;;;;5051547;28;20745;-78
2022/02/15 03:08:59;;;;;;;87.47;58.38;;;;;;;;;;5050194;28;21343;-78
2022/02/15 03:11:25;;;;;;;84.97;53.35;;;;;;;;;;5051729;28;20037;-80
2022/02/15 03:13:51;;;;;;;82.80;51.65;;;;;;;;;;5051421;28;20104;-77
2022/02/15 03:16:17;;;;;;;76.00;48.13;;;;;;;;;;5052465;28;20033;-75
2022/02/15 03:18:43;;;;;;;76.90;49.92;;;;;;;;;;5051291;28;20029;-76
2022/02/15 03:21:09;;;;;;;70.38;47.42;;;;;;;;;;5052201;28;20092;-77
2022/02/15 03:23:35;;;;;;;73.47;43.92;;;;;;;;;;5041390;28;20018;-80
2022/02/15 03:26:02;;;;;;;67.15;42.75;;;;;;;;;;5048467;28;20025;-77
2022/02/15 03:28:28;;;;;;;62.33;42.80;;;;;;;;;;5052849;28;20025;-77
2022/02/15 03:30:54;;;;;;;64.03;37.25;;;;;;;;;;5049147;28;20399;-77
2022/02/15 03:33:20;;;;;;;60.25;42.42;;;;;;;;;;5052000;28;20475;-79
2022/02/15 03:35:46;;;;;;;63.22;39.47;;;;;;;;;;5050614;28;20025;-78
2022/02/15 03:38:12;;;;;;;65.60;44.72;;;;;;;;;;5051528;28;20036;-77
2022/02/15 03:43:22;;;;;;;67.97;42.50;;;;;;;;;;5049017;28;20031;-82
2022/02/15 03:45:49;;;;;;;71.60;45.85;;;;;;;;;;5052202;28;20021;-78
2022/02/15 03:48:15;;;;;;;66.75;39.70;;;;;;;;;;5053001;28;20074;-77
2022/02/15 03:50:41;;;;;;;63.45;43.78;;;;;;;;;;5052594;28;20040;-77
2022/02/15 03:53:08;;;;;;;61.22;40.55;;;;;;;;;;5047825;28;20018;-77
2022/02/15 03:55:34;;;;;;;74.40;48.10;;;;;;;;;;5044595;28;20052;-77
2022/02/15 03:58:00;;;;;;;69.93;46.00;;;;;;;;;;5050986;28;20150;-77
2022/02/15 04:00:26;;;;;;;79.45;49.25;;;;;;;;;;5051005;28;20094;-79
2022/02/15 04:02:54;;;;;;;81.18;53.17;;;;;;;;;;5052380;28;20028;-78
2022/02/15 04:05:21;;;;;;;76.97;49.72;;;;;;;;;;5051090;28;20021;-77
2022/02/15 04:07:47;;;;;;;77.47;45.38;;;;;;;;;;5050717;28;20025;-77
2022/02/15 04:10:14;;;;;;;77.07;50.90;;;;;;;;;;5048427;28;20120;-77
2022/02/15 04:12:40;;;;;;;79.75;53.13;;;;;;;;;;5051450;28;20472;-77
2022/02/15 04:15:06;;;;;;;66.50;44.47;;;;;;;;;;5043832;28;20083;-79
2022/02/15 04:17:32;;;;;;;72.05;46.38;;;;;;;;;;5050194;28;20029;-77
2022/02/15 04:19:58;;;;;;;66.82;46.45;;;;;;;;;;5045269;28;20053;-77
2022/02/15 04:22:24;;;;;;;71.68;47.30;;;;;;;;;;5044402;28;20027;-77
2022/02/15 04:24:50;;;;;;;84.20;50.10;;;;;;;;;;5037820;28;20025;-77
2022/02/15 04:27:16;;;;;;;63.92;40.42;;;;;;;;;;5050627;28;20021;-77
2022/02/15 04:29:43;;;;;;;63.10;44.85;;;;;;;;;;5051603;28;20056;-79
2022/02/15 04:32:09;;;;;;;60.83;40.72;;;;;;;;;;5050259;28;20028;-77
2022/02/15 04:34:35;;;;;;;71.35;44.28;;;;;;;;;;5050392;28;20060;-77
2022/02/15 04:37:01;;;;;;;76.65;47.60;;;;;;;;;;5051881;28;20025;-77
2022/02/15 04:39:27;;;;;;;65.05;41.50;;;;;;;;;;5050579;28;20108;-80
2022/02/15 04:41:53;;;;;;;88.45;46.55;;;;;;;;;;5051253;28;20021;-76
2022/02/15 04:44:19;;;;;;;59.92;36.15;;;;;;;;;;5039611;28;20026;-77
2022/02/15 04:46:45;;;;;;;66.05;36.78;;;;;;;;;;5048760;28;20017;-77
2022/02/15 04:49:11;;;;;;;59.25;36.28;;;;;;;;;;5051375;28;20017;-76
2022/02/15 04:51:37;;;;;;;55.45;34.92;;;;;;;;;;5050997;28;20096;-77
2022/02/15 04:54:03;;;;;;;69.72;40.35;;;;;;;;;;5050059;28;20116;-77
2022/02/15 04:56:29;;;;;;;70.80;41.50;;;;;;;;;;5050250;28;20025;-77
2022/02/15 04:58:55;;;;;;;58.30;39.90;;;;;;;;;;5051246;28;20029;-77
2022/02/15 05:01:23;;;;;;;63.40;39.08;;;;;;;;;;5049908;28;20071;-77
2022/02/15 05:03:49;;;;;;;62.10;41.10;;;;;;;;;;5051157;28;20025;-77
2022/02/15 05:06:15;;;;;;;58.58;35.05;;;;;;;;;;5050035;28;20465;-76
2022/02/15 05:08:41;;;;;;;55.53;33.03;;;;;;;;;;5038567;28;20030;-76
2022/02/15 05:11:07;;;;;;;70.90;43.60;;;;;;;;;;5050033;28;20139;-78
2022/02/15 05:13:33;;;;;;;67.28;42.22;;;;;;;;;;5051502;28;20017;-77
2022/02/15 05:15:59;;;;;;;61.65;42.80;;;;;;;;;;5051279;28;20091;-78
2022/02/15 05:18:26;;;;;;;69.88;42.50;;;;;;;;;;5051348;28;20052;-77
2022/02/15 05:20:52;;;;;;;62.15;41.10;;;;;;;;;;5036117;28;20018;-76
2022/02/15 05:23:18;;;;;;;55.47;39.08;;;;;;;;;;5046736;28;20028;-77
2022/02/15 05:25:44;;;;;;;55.22;34.53;;;;;;;;;;5049662;28;20074;-77
2022/02/15 05:28:10;;;;;;;54.78;37.20;;;;;;;;;;5050770;28;20084;-77
2022/02/15 05:30:36;;;;;;;56.45;37.22;;;;;;;;;;5051209;28;20041;-77
2022/02/15 05:33:02;;;;;;;59.72;41.13;;;;;;;;;;5047499;28;20033;-77
2022/02/15 05:35:29;;;;;;;61.03;39.20;;;;;;;;;;5039437;28;20016;-77
2022/02/15 05:37:55;;;;;;;63.28;44.38;;;;;;;;;;5051093;28;20028;-77
2022/02/15 05:40:21;;;;;;;76.97;47.90;;;;;;;;;;5050855;28;20025;-77
2022/02/15 05:42:47;;;;;;;65.43;43.25;;;;;;;;;;5050916;28;20056;-78
2022/02/15 05:45:14;;;;;;;68.22;44.67;;;;;;;;;;5050921;28;20476;-77
2022/02/15 05:47:40;;;;;;;67.43;44.38;;;;;;;;;;5051010;28;20017;-78
2022/02/15 05:52:52;;;;;;;49.92;34.75;;;;;;;;;;5051909;28;20150;-77
2022/02/15 05:55:18;;;;;;;74.10;47.30;;;;;;;;;;5054519;28;20044;-76
2022/02/15 05:57:44;;;;;;;76.55;48.58;;;;;;;;;;5054734;28;20102;-79
2022/02/15 06:00:11;;;;;;;74.47;48.28;;;;;;;;;;5053078;28;20049;-77
2022/02/15 06:02:37;;;;;;;71.47;48.00;;;;;;;;;;5054252;28;20169;-77
2022/02/15 06:05:03;;;;;;;73.20;49.50;;;102.40;2227.20;;;;;;5054097;28;20021;-76
2022/02/15 06:07:28;;;;;;;69.47;47.05;;;77.60;2227.20;;;;;;5040188;28;20032;-80
2022/02/15 06:09:54;;;;;;;81.10;52.60;;;77.60;2227.20;;;;;;5054433;28;20111;-79
2022/02/15 06:12:20;;;;;;;78.55;53.42;;;77.70;2227.20;;;;;;5039287;28;20116;-76
2022/02/15 06:14:47;;;;;;;93.65;53.67;;;102.40;2227.20;;;;;;5053937;28;20025;-77
2022/02/15 06:17:12;;;;;;;79.18;50.55;;;102.50;2227.20;;;;;;5054600;28;20017;-76
2022/02/15 06:19:38;;;;;;;83.43;55.10;;;102.60;2227.20;;;;;;5054056;28;20027;-77
2022/02/15 06:22:04;;;;;;;89.05;58.13;;;102.80;2227.20;;;;;;5076618;28;20132;-76
2022/02/15 06:24:30;;;;;;;93.97;58.75;;;102.70;2227.20;;;;;;5050338;28;20440;-77
2022/02/15 06:27:01;;;;;;;105.47;64.63;;;102.60;2227.20;;;;;;5053921;28;20027;-77
2022/02/15 06:29:28;;;;;;;101.32;63.67;;;102.50;2227.20;;;;;;5052007;28;20033;-77
2022/02/15 06:31:54;;;;;;;103.13;58.28;;;102.60;2227.20;;;;;;5041003;28;20025;-76
2022/02/15 06:34:21;;;;;;;90.70;57.28;;;102.60;2227.20;;;;;;5054145;28;20052;-77
2022/02/15 06:36:47;;;;;;;79.50;50.30;;;102.50;2227.20;;;;;;5053392;28;20525;-78
2022/02/15 06:39:12;;;;;;;70.93;47.92;;;102.50;2227.20;;;;;;5053856;28;20029;-77
2022/02/15 06:41:38;;;;;;;81.00;51.00;;;102.50;2227.20;;;;;;5053515;28;20100;-77
2022/02/15 06:44:04;;;;;;;89.43;59.05;;;102.60;2227.20;;;;;;5053647;28;20055;-76
2022/02/15 06:46:34;;;;;;;100.35;63.45;;;102.70;2227.20;;;;;;5053503;28;20025;-76
2022/02/15 06:48:59;;;;;;;100.60;68.28;;;102.70;2227.20;;;;;;5053476;28;20021;-77
2022/02/15 06:51:25;;;;;;;94.55;65.85;;;102.70;2227.20;;;;;;5053261;28;20494;-77
2022/02/15 06:53:51;;;;;;;86.85;55.72;;;102.90;2227.20;;;;;;5053511;28;20025;-77
2022/02/15 06:56:17;;;;;;;102.95;61.90;;;102.80;2227.20;;;;;;5053734;28;20025;-77
2022/02/15 06:58:42;;;;;;;82.30;55.67;;;102.70;2227.20;;;;;;5052145;28;20407;-77
2022/02/15 07:01:11;;;;;;;80.63;51.30;;;102.90;2227.20;;;;;;5068829;28;20139;-79
2022/02/15 07:03:37;;;;;;;85.03;54.45;;;102.90;2227.20;;;;;;5051631;28;20079;-77
2022/02/15 07:06:04;;;;;;;100.95;65.35;;;102.90;2227.20;;;;;;5048266;28;20045;-78
2022/02/15 07:08:30;;;;;;;130.27;82.57;;;102.90;2227.20;;;;;;5043579;28;20052;-78
2022/02/15 07:10:56;;;;;;;104.63;69.47;;;103.00;2227.20;;;;;;5052789;28;20549;-78
2022/02/15 07:13:25;;;;;;;94.20;64.00;;;103.10;2227.20;;;;;;5052350;28;20032;-78
2022/02/15 07:15:51;;;;;;;82.75;59.17;;;103.20;2227.20;;;;;;5053070;28;20028;-78
2022/02/15 07:18:17;;;;;;;89.45;59.45;;;128.00;2252.80;;;;;;5048691;28;20112;-78
2022/02/15 07:20:43;;;;;;;104.63;70.95;;;128.10;2252.80;;;;;;5052390;28;20056;-78
2022/02/15 07:23:10;;;;;;;139.95;96.80;;;128.30;2252.80;;;;;;5053065;28;20056;-82
2022/02/15 07:25:37;;;;;;;129.40;87.43;;;128.60;2252.80;;;;;;5053341;28;20051;-81
2022/02/15 07:28:03;;;;;;;129.27;87.40;;;128.90;2252.80;;;;;;5052342;28;20384;-80
2022/02/15 07:30:29;;;;;;;104.38;74.03;;;153.60;2252.80;;;;;;5052640;28;20041;-81
2022/02/15 07:32:56;;;;;;;111.43;76.75;;;153.60;2252.80;;;;;;5052138;28;20031;-78
2022/02/15 07:35:22;;;;;;;101.45;65.18;;;128.90;2252.80;;;;;;5052360;28;20056;-78
2022/02/15 07:37:51;;;;;;;97.88;72.65;;;128.90;2252.80;;;;;;5051326;28;20025;-80
2022/02/15 07:40:21;;;;;;;82.55;59.10;;;153.70;2252.80;;;;;;5051850;28;20025;-80
2022/02/15 07:42:47;;;;;;;99.53;70.57;;;153.70;2252.80;;;;;;5051441;28;20404;-80
2022/02/15 07:45:17;;;;;;;159.50;123.45;;;153.70;2252.80;;;;;;5040606;28;20113;-80
2022/02/15 07:47:48;;;;;;;85.50;62.78;;;153.80;2252.80;;;;;;5052392;28;20029;-81
2022/02/15 07:50:15;;;;;;;100.18;67.40;;;154.00;2252.80;;;;;;5053952;28;20549;-81
2022/02/15 07:52:41;;;;;;;74.13;46.70;;;154.00;2252.80;;;;;;5052683;28;20057;-81
2022/02/15 07:55:07;;;;;;;73.57;47.38;;;153.80;2252.80;;;;;;5054077;28;20028;-80
2022/02/15 07:57:33;;;;;;;92.15;60.47;;;153.70;2252.80;;;;;;5050900;28;20025;-79
2022/02/15 07:59:59;;;;;;;81.32;55.55;;;128.90;2252.80;;;;;;5051709;28;20522;-82
2022/02/15 08:02:25;;;;;;;93.32;66.47;;;128.90;2252.80;;;;;;5051697;28;20223;-83
2022/02/15 08:04:50;;;;;;;82.50;59.17;;;153.80;2252.80;;;;;;5051158;28;20104;-82
2022/02/15 08:07:16;;;;;;;87.57;58.78;;;154.20;2252.80;;;;;;5037222;28;20026;-80
2022/02/15 08:09:42;;;;;;;90.65;63.20;;;154.20;2252.80;;;;;;5031231;28;20447;-82
2022/02/15 08:12:17;;;;;;;88.88;62.28;;;154.30;2252.80;;;;;;5043853;28;20036;-80
2022/02/15 08:14:44;;;;;;;92.55;62.25;;;154.40;2252.80;;;;;;5052144;28;20021;-82
2022/02/15 08:17:10;;;;;;;89.35;61.83;;;179.30;2252.80;;;;;;5051526;28;20468;-82
2022/02/15 08:19:35;;;;;;;83.97;57.95;;;179.60;2252.80;;;;;;5048554;28;20105;-81
2022/02/15 08:22:01;;;;;;;83.40;59.17;;;180.00;2252.80;;;;;;5041973;28;20079;-81
2022/02/15 08:24:28;;;;;;;96.20;68.88;;;205.00;2252.80;;;;;;5051280;28;20036;-81
2022/02/15 08:26:54;;;;;;;96.82;71.47;;;205.20;2252.80;;;;;;5044141;28;20076;-80
2022/02/15 08:29:20;;;;;;;94.80;65.57;;;205.40;2252.80;;;;;;5046187;28;20055;-81
2022/02/15 08:31:46;;;;;;;92.05;66.75;;;205.60;2252.80;;;;;;5051580;28;20061;-78
2022/02/15 08:34:12;;;;;;;89.38;67.28;;;205.60;2252.80;;;;;;5051341;28;20061;-78
2022/02/15 08:36:38;;;;;;;89.35;65.85;;;205.70;2252.80;;;;;;5050515;28;20075;-80
2022/02/15 08:39:05;;;;;;;98.63;66.07;;;230.50;2252.80;;;;;;5050824;28;20480;-79
2022/02/15 08:41:31;;;;;;;94.60;68.25;;;230.60;2252.80;;;;;;5050848;28;20074;-78
2022/02/15 08:43:57;;;;;;;98.40;77.60;;;230.70;2252.80;;;;;;5051203;28;20025;-80
2022/02/15 08:46:23;;;;;;;87.93;65.10;;;230.70;2252.80;;;;;;5051644;28;20024;-80
2022/02/15 08:48:48;;;;;;;82.05;59.10;;;230.80;2252.80;;;;;;5049992;28;20028;-77
2022/02/15 08:51:18;;;;;;;82.18;57.80;;;230.80;2252.80;;;;;;5054113;28;20480;-77
2022/02/15 08:53:45;;;;;;;80.57;58.65;;;230.90;2252.80;;;;;;5054341;28;20018;-79
2022/02/15 08:56:11;;;;;;;76.68;57.03;;;231.00;2252.80;;;;;;5051611;28;20036;-78
2022/02/15 08:58:37;;;;;;;76.43;57.40;;;231.20;2252.80;;;;;;5050686;28;20108;-77
2022/02/15 09:01:03;;;;;;;82.97;61.17;;;231.30;2252.80;;;;;;5051774;28;20124;-76
2022/02/15 09:03:29;;;;;;;88.28;61.58;;;231.00;2252.80;;;;;;5045764;28;20387;-76
2022/02/15 09:05:55;;;;;;;89.20;66.30;;;231.10;2252.80;;;;;;5048821;28;20551;-79
2022/02/15 09:08:22;;;;;;;84.65;60.20;;;230.70;2252.80;;;;;;5049625;28;20421;-77
2022/02/15 09:10:48;;;;;;;90.82;66.22;;;230.70;2252.80;;;;;;5050587;28;20120;-77
2022/02/15 09:13:13;;;;;;;91.30;69.75;;;205.70;2252.80;;;;;;5049947;28;20115;-77
2022/02/15 09:15:39;;;;;;;85.85;64.78;;;230.50;2252.80;;;;;;5048593;28;20075;-76
2022/02/15 09:18:05;;;;;;;88.32;65.90;;;205.60;2252.80;;;;;;5048216;28;20033;-77
2022/02/15 09:20:31;;;;;;;84.05;62.08;;;205.70;2252.80;;;;;;5048656;28;20017;-79
2022/02/15 09:22:56;;;;;;;82.15;60.90;;;205.70;2252.80;;;;;;5082341;28;20020;-77
2022/02/15 09:25:22;;;;;;;77.93;58.88;;;230.40;2252.80;;;;;;5048442;28;20053;-80
2022/02/15 09:27:48;;;;;;;88.40;63.28;;;230.60;2252.80;;;;;;5049589;28;20411;-79
2022/02/15 09:30:13;;;;;;;87.55;65.07;;;230.70;2252.80;;;;;;5053797;28;20116;-77
2022/02/15 09:32:39;;;;;;;83.80;60.92;;;231.00;2252.80;;;;;;5053826;28;20017;-78
2022/02/15 09:35:06;;;;;;;74.50;57.92;;;231.30;2252.80;;;;;;5053979;28;20499;-77
2022/02/15 09:37:31;;;;;;;73.80;55.00;;;256.10;2252.80;;;;;;5052386;28;20386;-77
2022/02/15 09:39:59;;;;;;;71.68;55.40;;;256.40;2252.80;;;;;;5052153;28;20032;-80
2022/02/15 09:42:25;;;;;;;71.05;56.13;;;256.10;2252.80;;;;;;5054216;28;20021;-79
2022/02/15 09:44:51;;;;;;;66.15;48.88;;;256.30;2252.80;;;;;;5054230;28;20033;-76
2022/02/15 09:47:23;;;;;;;65.90;45.22;;;256.30;2252.80;;;;;;5054921;28;20032;-77
2022/02/15 09:49:50;;;;;;;54.20;44.58;;;281.60;2278.40;;;;;;5053499;28;20036;-77
2022/02/15 09:52:18;;;;;;;54.53;42.25;;;281.90;2278.40;;;;;;5055018;28;20032;-75
2022/02/15 09:54:45;;;;;;;54.17;40.17;;;281.90;2278.40;;;;;;5057092;28;20048;-76
2022/02/15 09:57:12;;;;;;;58.88;45.70;;;281.60;2278.40;;;;;;5054137;28;20093;-78
2022/02/15 09:59:38;;;;;;;62.53;48.58;;;256.40;2252.80;;;;;;5053391;28;20095;-75
2022/02/15 10:02:09;;;;;;;68.93;51.45;;;256.00;2252.80;;;;;;5052114;28;20021;-77
2022/02/15 10:04:36;;;;;;;62.25;49.05;;;231.30;2252.80;;;;;;5053311;28;20044;-78
2022/02/15 10:07:04;;;;;;;62.70;46.47;;;231.30;2252.80;;;;;;5053344;28;20013;-76
2022/02/15 10:09:31;;;;;;;67.63;49.88;;;256.10;2252.80;;;;;;5050285;28;20028;-78
2022/02/15 10:12:06;;;;;;;64.75;44.03;;;256.20;2252.80;;;;;;5053534;28;20070;-79
2022/02/15 10:14:37;;;;;;;64.70;47.00;;;256.60;2252.80;;;;;;5053438;28;20025;-76
2022/02/15 10:17:05;;;;;;;58.20;45.75;;;281.60;2278.40;;;;;;5053916;28;20060;-75
2022/02/15 10:19:31;;;;;;;72.00;51.88;;;256.60;2252.80;;;;;;5040004;28;20068;-77
2022/02/15 10:21:58;;;;;;;59.00;43.90;;;256.70;2252.80;;;;;;5066612;28;20021;-77
2022/02/15 10:24:29;;;;;;;60.60;43.60;;;282.10;2278.40;;;;;;5045786;28;20457;-77
2022/02/15 10:27:01;;;;;;;49.33;39.63;;;282.40;2278.40;;;;;;5040259;28;20025;-78
2022/02/15 10:29:29;;;;;;;52.53;39.92;;;;;;;;;;5052926;28;20108;-77
2022/02/15 10:31:58;;;;;;;56.53;40.42;;;;;;;;;;5044792;28;20041;-76
2022/02/15 10:34:25;;;;;;;54.45;39.47;;;307.50;2304.00;;;;;;5037597;28;20105;-78
2022/02/15 10:37:03;;;;;;;61.35;36.33;;;307.50;2304.00;;;;;;5051196;28;20409;-78
2022/02/15 10:39:52;;;;;;;47.65;37.60;;;;;;;;;;5044269;28;20037;-77
2022/02/15 10:42:21;;;;;;;68.85;53.13;;;;;;;;;;5044524;28;20087;-77
2022/02/15 10:44:57;;;;;;;79.68;46.58;;;;;;;;;;5048311;28;20044;-76
2022/02/15 10:47:24;;;;;;;61.95;38.67;;;;;;;;;;5063966;28;20025;-77
2022/02/15 10:49:50;;;;;;;64.18;41.20;;;;;;;;;;5071141;28;20018;-80
2022/02/15 10:52:17;;;;;;;49.60;38.10;;;;;;;;;;5050944;28;20025;-80
2022/02/15 10:54:43;;;;;;;56.58;38.35;;;;;;;;;;5049073;28;20025;-77
2022/02/15 10:57:13;;;;;;;45.60;36.78;;;384.80;1971.20;;;;;;5048749;28;20036;-76
2022/02/15 10:59:41;;;;;;;56.13;40.00;;;384.80;1945.60;;;;;;5056911;28;20049;-79
2022/02/15 11:02:14;;;;;;;56.55;39.05;;;410.20;1843.20;;;;;;5047616;28;20025;-75
2022/02/15 11:04:41;;;;;;;59.15;37.85;;;410.50;1817.60;;;;;;5049980;28;20059;-77
2022/02/15 11:07:09;;;;;;;54.70;38.33;;;435.20;1843.20;;;;;;5046465;28;20059;-78
2022/02/15 11:09:45;;;;;;;51.70;41.28;;;435.30;1817.60;;;;;;5052374;28;20433;-76
2022/02/15 11:12:23;;;;;;;53.45;37.15;;;435.50;1766.40;;;;;;5053190;28;20074;-76
2022/02/15 11:14:59;;;;;;;57.63;37.83;;;460.80;1817.60;;;;;;5053305;28;20052;-76
2022/02/15 11:17:28;;;;;;;42.20;34.38;;;436.10;1689.60;;;;;;5052671;28;20040;-76
2022/02/15 11:20:04;;;;;;;49.50;32.28;;;460.90;1689.60;;;;;;5053468;28;20029;-77
2022/02/15 11:22:40;;;;;;;56.47;33.63;;;461.10;1664.00;;;;;;5049970;28;20058;-77
2022/02/15 11:25:07;;;;;;;57.80;36.72;;;461.10;1689.60;;;;;;5053767;28;20472;-78
2022/02/15 11:27:33;;;;;;;64.32;38.38;;;461.20;1664.00;;;;;;5050705;28;20021;-78
2022/02/15 11:29:58;;;;;;;75.80;38.42;;;461.30;1664.00;;;;;;5041916;28;20066;-78
2022/02/15 11:32:34;;;;;;;65.13;36.25;;;435.50;1766.40;;;;;;5055408;28;20029;-77
2022/02/15 11:35:11;;;;;;;40.33;34.80;;;435.60;1817.60;;;;;;5051634;28;20360;-77
2022/02/15 11:37:37;;;;;;;59.75;47.67;;;435.30;1817.60;;;;;;5053606;28;20053;-78
2022/02/15 11:40:06;;;;;;;44.97;37.03;;;;;;;;;;5052994;28;20025;-76
2022/02/15 11:42:43;;;;;;;54.53;38.08;;;;;;;;;;5049405;28;20025;-77
2022/02/15 11:45:18;;;;;;;43.10;33.85;;;;;;;;;;5051145;28;20365;-77
2022/02/15 11:47:47;;;;;;;64.88;38.13;;;;;;;;;;5053183;28;20025;-78
2022/02/15 11:50:15;;;;;;;49.70;31.35;;;;;;;;;;5051288;28;20029;-78
2022/02/15 11:52:42;;;;;;;45.60;30.17;;;;;;;;;;5051835;28;20032;-78
2022/02/15 11:55:19;;;;;;;28.52;22.60;;;;;;;;;;5052937;28;20070;-76
2022/02/15 11:57:48;;;;;;;41.40;27.35;;;;;;;;;;5053109;28;20021;-76
2022/02/15 12:00:15;;;;;;;54.45;29.73;;;;;;;;;;5051596;28;20048;-77
2022/02/15 12:02:52;;;;;;;47.25;30.88;;;;;;;;;;5057758;28;20083;-77
2022/02/15 12:05:19;;;;;;;51.95;26.67;;;;;;;;;;5049416;28;20025;-77
2022/02/15 12:07:45;;;;;;;25.52;21.83;;;;;;;;;;5035576;28;20021;-77
2022/02/15 12:10:11;;;;;;;44.58;22.88;;;;;;;;;;5048779;28;20094;-79
2022/02/15 12:12:39;;;;;;;28.88;22.20;;;;;;;;;;5050248;28;20511;-77
2022/02/15 12:15:06;;;;;;;47.85;24.02;;;;;;;;;;5044761;28;20081;-78
2022/02/15 12:17:37;;;;;;;50.08;35.92;;;;;;;;;;5042034;28;20535;-77
2022/02/15 12:20:04;;;;;;;47.17;24.55;;;;;;;;;;5048160;28;20123;-79
2022/02/15 12:22:30;;;;;;;48.53;22.45;;;;;;;;;;5048538;28;20027;-78
2022/02/15 12:24:57;;;;;;;29.85;20.08;;;;;;;;;;5051132;28;20025;-78
2022/02/15 12:27:24;;;;;;;17.90;15.98;;;;;;;;;;5051959;28;20134;-76
2022/02/15 12:29:54;;;;;;;22.05;14.32;;;;;;;;;;5038257;28;20146;-78
2022/02/15 12:32:22;;;;;;;36.75;16.98;;;;;;;;;;5051219;28;20447;-76
2022/02/15 12:34:48;;;;;;;20.48;14.10;;;;;;;;;;5050726;28;20025;-80
2022/02/15 12:37:21;;;;;;;16.88;12.57;;;;;;;;;;5050235;28;20369;-77
2022/02/15 12:39:48;;;;;;;16.80;13.45;;;;;;;;;;5050196;28;20033;-77
2022/02/15 12:42:15;;;;;;;13.73;11.80;;;;;;;;;;5051246;28;20108;-77
2022/02/15 12:44:41;;;;;;;22.13;19.75;;;;;;;;;;5051065;28;20025;-76
2022/02/15 12:47:08;;;;;;;17.95;15.00;;;;;;;;;;5051207;28;20048;-77
2022/02/15 12:49:34;;;;;;;46.75;39.97;;;;;;;;;;5049867;28;20025;-77
2022/02/15 12:52:00;;;;;;;23.40;17.48;;;;;;;;;;5051167;28;20543;-79
2022/02/15 12:54:26;;;;;;;31.10;17.10;;;;;;;;;;5051429;28;20021;-78
2022/02/15 12:56:53;;;;;;;19.38;10.98;;;;;;;;;;5043605;28;20021;-78
2022/02/15 12:59:21;;;;;;;26.83;12.98;;;;;;;;;;5051985;28;20112;-79
2022/02/15 13:01:48;;;;;;;17.23;13.02;;;;;;;;;;5051364;28;20146;-78
2022/02/15 13:04:14;;;;;;;26.42;15.13;;;;;;;;;;5057295;28;20092;-79
2022/02/15 13:06:40;;;;;;;24.98;13.38;;;;;;;;;;5055381;28;20128;-78
2022/02/15 13:09:10;;;;;;;23.83;14.55;;;;;;;;;;5050675;28;20477;-79
2022/02/15 13:11:36;;;;;;;29.90;13.38;;;;;;;;;;5051780;28;20048;-80
2022/02/15 13:14:02;;;;;;;38.60;13.30;;;;;;;;;;5050267;28;20072;-79
2022/02/15 13:16:42;;;;;;;29.58;13.13;;;;;;;;;;5047106;28;20029;-77
2022/02/15 13:19:08;;;;;;;36.15;17.70;;;;;;;;;;5047728;28;20029;-77
2022/02/15 13:21:41;;;;;;;63.00;44.92;;;;;;;;;;5050391;28;20380;-77
2022/02/15 13:24:11;;;;;;;75.43;49.13;;;;;;;;;;5044927;28;20025;-79